Time;durP1;ratioP1;P1;durP2;ratioP2;P2;SDS_P1;SDS_P2;PMS_P1;PMS_P2;Temp;Humidity;BMP_temperature;BMP_pressure;BME280_temperature;BME280_humidity;BME280_pressure;Samples;Min_cycle;Max_cycle;Signal;HPM_P1;HPM_P2
2021/08/19 00:01:29;;;;;;;29.52;9.35;;;;;;;;;;5034206;28;20286;-82
2021/08/19 00:03:54;;;;;;;23.90;8.85;;;;;;;;;;5033120;28;20025;-81
2021/08/19 00:06:19;;;;;;;20.10;8.90;;;;;;;;;;5031084;28;20030;-82
2021/08/19 00:08:45;;;;;;;33.67;10.90;;;;;;;;;;5035931;28;20260;-82
2021/08/19 00:11:10;;;;;;;34.00;13.13;;;;;;;;;;5036306;28;20310;-82
2021/08/19 00:13:36;;;;;;;33.67;12.88;;;;;;;;;;5035198;28;20590;-82
2021/08/19 00:16:01;;;;;;;33.08;12.93;;;;;;;;;;5033150;28;20046;-82
2021/08/19 00:18:27;;;;;;;32.22;14.13;;;;;;;;;;5033863;28;20112;-82
2021/08/19 00:20:52;;;;;;;35.92;13.88;;;;;;;;;;5034035;28;20021;-82
2021/08/19 00:23:18;;;;;;;29.60;14.00;;;;;;;;;;5032925;28;20036;-81
2021/08/19 00:25:43;;;;;;;39.15;14.75;;;;;;;;;;5033010;28;20495;-82
2021/08/19 00:28:08;;;;;;;29.65;13.30;;;;;;;;;;5032244;28;20028;-82
2021/08/19 00:30:34;;;;;;;29.15;13.88;;;;;;;;;;5033309;28;20025;-81
2021/08/19 00:32:59;;;;;;;36.85;13.98;;;;;;;;;;5031859;28;20095;-81
2021/08/19 00:35:25;;;;;;;26.65;13.32;;;;;;;;;;5033470;28;20024;-82
2021/08/19 00:37:50;;;;;;;29.50;12.85;;;;;;;;;;5035416;28;20075;-82
2021/08/19 00:40:15;;;;;;;29.03;13.97;;;;;;;;;;5034745;28;20029;-82
2021/08/19 00:42:42;;;;;;;35.50;15.00;;;;;;;;;;5034219;28;20252;-82
2021/08/19 00:45:10;;;;;;;31.23;12.93;;;;;;;;;;5031496;28;20112;-82
2021/08/19 00:47:38;;;;;;;35.08;14.00;;;;;;;;;;5032795;28;20392;-82
2021/08/19 00:50:03;;;;;;;34.45;14.82;;;;;;;;;;5030556;28;20025;-81
2021/08/19 00:52:29;;;;;;;32.20;16.35;;;;;;;;;;5029809;28;20102;-82
2021/08/19 00:54:54;;;;;;;40.17;15.20;;;;;;;;;;5031639;28;20029;-82
2021/08/19 00:57:21;;;;;;;33.47;15.20;;;;;;;;;;5029486;28;20029;-82
2021/08/19 00:59:47;;;;;;;36.92;16.05;;;;;;;;;;5029711;28;20021;-82
2021/08/19 01:02:12;;;;;;;37.58;16.05;;;;;;;;;;5033777;28;20018;-82
2021/08/19 01:04:38;;;;;;;34.85;16.38;;;;;;;;;;5033865;28;20813;-81
2021/08/19 01:07:07;;;;;;;37.13;17.27;;;;;;;;;;5033203;28;20033;-82
2021/08/19 01:09:32;;;;;;;34.22;17.58;;;;;;;;;;5032773;28;20101;-82
2021/08/19 01:11:58;;;;;;;42.85;20.10;;;;;;;;;;5032864;28;20112;-82
2021/08/19 01:14:23;;;;;;;39.42;18.45;;;;;;;;;;5030237;28;20114;-82
2021/08/19 01:16:49;;;;;;;36.90;18.30;;;;;;;;;;5029721;28;20229;-82
2021/08/19 01:19:16;;;;;;;37.05;18.63;;;;;;;;;;5030664;28;20026;-81
2021/08/19 01:21:41;;;;;;;40.45;18.75;;;;;;;;;;5030972;28;20100;-82
2021/08/19 01:24:07;;;;;;;41.22;20.33;;;;;;;;;;5036017;28;20060;-82
2021/08/19 01:26:32;;;;;;;44.07;21.03;;;;;;;;;;5035044;28;20018;-82
2021/08/19 01:28:57;;;;;;;47.85;20.52;;;;;;;;;;5034160;28;20029;-82
2021/08/19 01:31:24;;;;;;;40.67;19.38;;;;;;;;;;5035064;28;20044;-82
2021/08/19 01:33:50;;;;;;;40.47;20.38;;;;;;;;;;5033025;28;20112;-82
2021/08/19 01:36:16;;;;;;;39.05;18.00;;;;;;;;;;5032747;28;20113;-82
2021/08/19 01:38:42;;;;;;;41.80;19.48;;;;;;;;;;5031746;28;20055;-82
2021/08/19 01:41:08;;;;;;;38.42;18.55;;;;;;;;;;5031432;28;20025;-82
2021/08/19 01:43:33;;;;;;;37.83;17.40;;;;;;;;;;5029373;28;20112;-83
2021/08/19 01:46:02;;;;;;;35.67;16.30;;;;;;;;;;5033117;28;20444;-82
2021/08/19 01:48:27;;;;;;;32.78;15.65;;;;;;;;;;5034847;28;20056;-83
2021/08/19 01:50:54;;;;;;;41.72;17.92;;;;;;;;;;5034266;28;20033;-82
2021/08/19 01:53:19;;;;;;;32.10;14.70;;;;;;;;;;5032088;28;20504;-82
2021/08/19 01:55:45;;;;;;;32.28;15.73;;;;;;;;;;5031433;28;20025;-82
2021/08/19 01:58:10;;;;;;;24.70;13.40;;;;;;;;;;5032326;28;20022;-83
2021/08/19 02:00:36;;;;;;;27.40;15.07;;;;;;;;;;5032036;28;20038;-82
2021/08/19 02:03:01;;;;;;;29.52;14.77;;;;;;;;;;5031253;28;20021;-82
2021/08/19 02:05:27;;;;;;;34.78;13.60;;;;;;;;;;5030666;28;20099;-82
2021/08/19 02:07:52;;;;;;;30.97;14.63;;;;;;;;;;5029853;28;20025;-82
2021/08/19 02:10:17;;;;;;;28.05;14.32;;;;;;;;;;5032425;28;20257;-82
2021/08/19 02:12:42;;;;;;;29.48;15.25;;;;;;;;;;5030831;28;20084;-82
2021/08/19 02:15:08;;;;;;;30.20;14.48;;;;;;;;;;5033161;28;20384;-83
2021/08/19 02:17:33;;;;;;;36.38;14.98;;;;;;;;;;5035175;28;20033;-82
2021/08/19 02:19:58;;;;;;;35.03;14.17;;;;;;;;;;5031957;28;20049;-82
2021/08/19 02:22:23;;;;;;;33.63;14.00;;;;;;;;;;5032849;28;20728;-82
2021/08/19 02:24:49;;;;;;;21.97;12.47;;;;;;;;;;5029914;28;20025;-82
2021/08/19 02:27:14;;;;;;;32.45;12.98;;;;;;;;;;5031923;28;20101;-82
2021/08/19 02:29:39;;;;;;;28.87;12.83;;;;;;;;;;5029456;28;20028;-82
2021/08/19 02:32:04;;;;;;;24.50;10.57;;;;;;;;;;5030835;28;20276;-82
2021/08/19 02:34:29;;;;;;;20.70;9.90;;;;;;;;;;5032961;28;20499;-82
2021/08/19 02:36:55;;;;;;;22.30;9.33;;;;;;;;;;5033527;28;20034;-82
2021/08/19 02:39:20;;;;;;;26.40;11.33;;;;;;;;;;5032797;28;20481;-82
2021/08/19 02:41:45;;;;;;;24.70;11.57;;;;;;;;;;5035512;28;20068;-82
2021/08/19 02:44:10;;;;;;;27.73;11.10;;;;;;;;;;5037139;28;20762;-82
2021/08/19 02:46:35;;;;;;;26.02;10.48;;;;;;;;;;5037801;28;20029;-82
2021/08/19 02:49:00;;;;;;;31.60;11.10;;;;;;;;;;5034495;28;20026;-82
2021/08/19 02:51:26;;;;;;;27.27;11.77;;;;;;;;;;5033303;28;20264;-81
2021/08/19 02:53:51;;;;;;;26.23;11.33;;;;;;;;;;5035495;28;20112;-82
2021/08/19 02:56:16;;;;;;;28.67;11.47;;;;;;;;;;5034675;28;20036;-82
2021/08/19 02:58:41;;;;;;;24.65;10.35;;;;;;;;;;5036541;28;20371;-82
2021/08/19 03:01:06;;;;;;;20.80;9.67;;;;;;;;;;5035742;28;20362;-82
2021/08/19 03:03:31;;;;;;;24.40;11.03;;;;;;;;;;5033249;28;20118;-82
2021/08/19 03:05:57;;;;;;;21.97;9.20;;;;;;;;;;5035274;28;20347;-82
2021/08/19 03:08:22;;;;;;;19.10;7.27;;;;;;;;;;5037718;28;20264;-82
2021/08/19 03:10:47;;;;;;;19.47;8.17;;;;;;;;;;5036626;28;20260;-82
2021/08/19 03:13:12;;;;;;;21.00;7.53;;;;;;;;;;5035492;28;20083;-82
2021/08/19 03:15:38;;;;;;;16.65;7.82;;;;;;;;;;5033819;28;20410;-82
2021/08/19 03:18:03;;;;;;;15.70;8.10;;;;;;;;;;5037389;28;20052;-82
2021/08/19 03:20:28;;;;;;;18.20;7.38;;;;;;;;;;5035694;28;20344;-82
2021/08/19 03:22:54;;;;;;;14.07;6.77;;;;;;;;;;5033563;28;20032;-82
2021/08/19 03:25:19;;;;;;;15.05;5.40;;;;;;;;;;5033901;28;20755;-82
2021/08/19 03:27:44;;;;;;;20.20;7.78;;;;;;;;;;5031675;28;20054;-81
2021/08/19 03:30:10;;;;;;;13.23;5.73;;;;;;;;;;5036544;28;20052;-82
2021/08/19 03:32:36;;;;;;;16.67;5.20;;;;;;;;;;5035822;28;20271;-82
2021/08/19 03:35:01;;;;;;;11.98;5.35;;;;;;;;;;5037077;28;20025;-82
2021/08/19 03:37:29;;;;;;;10.70;6.40;;;;;;;;;;5034169;28;20400;-82
2021/08/19 03:39:54;;;;;;;11.38;5.60;;;;;;;;;;5035538;28;20332;-82
2021/08/19 03:42:19;;;;;;;10.85;4.47;;;;;;;;;;5035873;28;20055;-82
2021/08/19 03:44:44;;;;;;;9.03;4.30;;;;;;;;;;5035089;28;20022;-82
2021/08/19 03:47:11;;;;;;;10.07;4.70;;;;;;;;;;5034723;28;20769;-82
2021/08/19 03:49:36;;;;;;;11.48;5.25;;;;;;;;;;5034241;28;20284;-82
2021/08/19 03:52:01;;;;;;;10.00;3.90;;;;;;;;;;5032986;28;20156;-82
2021/08/19 03:54:27;;;;;;;10.10;4.45;;;;;;;;;;5032725;28;20087;-82
2021/08/19 03:56:53;;;;;;;6.70;3.83;;;;;;;;;;5032101;28;20032;-82
2021/08/19 03:59:18;;;;;;;8.05;4.28;;;;;;;;;;5034698;28;20101;-82
2021/08/19 04:01:43;;;;;;;10.23;4.13;;;;;;;;;;5032553;28;20060;-82
2021/08/19 04:04:08;;;;;;;7.40;4.00;;;;;;;;;;5031138;28;20079;-81
2021/08/19 04:06:33;;;;;;;15.45;4.60;;;;;;;;;;5033251;28;20322;-82
2021/08/19 04:08:59;;;;;;;9.33;4.53;;;;;;;;;;5028639;28;20444;-82
2021/08/19 04:11:25;;;;;;;6.90;4.37;;;;;;;;;;5036095;28;20735;-81
2021/08/19 04:13:51;;;;;;;8.23;4.05;;;;;;;;;;5035866;28;20787;-82
2021/08/19 04:16:16;;;;;;;7.18;3.95;;;;;;;;;;5028089;28;20150;-81
2021/08/19 04:18:41;;;;;;;11.60;4.75;;;;;;;;;;5051262;28;20021;-83
2021/08/19 04:21:06;;;;;;;11.30;4.73;;;;;;;;;;5044309;28;20013;-82
2021/08/19 04:23:31;;;;;;;8.53;4.40;;;;;;;;;;5031986;28;20030;-82
2021/08/19 04:25:57;;;;;;;8.87;4.27;;;;;;;;;;5033649;28;20268;-82
2021/08/19 04:28:22;;;;;;;9.37;4.33;;;;;;;;;;5029944;28;20743;-81
2021/08/19 04:30:47;;;;;;;10.93;4.90;;;;;;;;;;5044307;28;20281;-81
2021/08/19 04:33:13;;;;;;;15.48;4.93;;;;;;;;;;5035137;28;20029;-81
2021/08/19 04:35:40;;;;;;;18.55;5.18;;;;;;;;;;5037625;28;20544;-82
2021/08/19 04:38:05;;;;;;;13.02;5.18;;;;;;;;;;5042449;28;20021;-82
2021/08/19 04:40:30;;;;;;;10.98;4.05;;;;;;;;;;5034237;28;20167;-82
2021/08/19 04:42:55;;;;;;;13.20;5.03;;;;;;;;;;5045363;28;20017;-82
2021/08/19 04:45:21;;;;;;;17.03;5.90;;;;;;;;;;5035559;28;20709;-82
2021/08/19 04:47:46;;;;;;;12.50;4.65;;;;;;;;;;5036720;28;20318;-81
2021/08/19 04:50:11;;;;;;;9.30;5.13;;;;;;;;;;5043149;28;20396;-81
2021/08/19 04:52:37;;;;;;;16.42;5.82;;;;;;;;;;5043786;28;20458;-82
2021/08/19 04:55:02;;;;;;;14.60;6.07;;;;;;;;;;5033591;28;20029;-82
2021/08/19 04:57:28;;;;;;;13.43;6.00;;;;;;;;;;5038124;28;20295;-82
2021/08/19 04:59:53;;;;;;;16.35;6.38;;;;;;;;;;5041329;28;20763;-82
2021/08/19 05:02:19;;;;;;;18.43;6.87;;;;;;;;;;5036534;28;20306;-82
2021/08/19 05:04:44;;;;;;;18.47;7.43;;;;;;;;;;5034498;28;20120;-82
2021/08/19 05:07:09;;;;;;;20.73;6.63;;;;;;;;;;5041107;28;20256;-82
2021/08/19 05:09:34;;;;;;;17.30;6.33;;;;;;;;;;5039154;28;20652;-82
2021/08/19 05:11:59;;;;;;;23.00;6.70;;;;;;;;;;5034553;28;20302;-81
2021/08/19 05:14:25;;;;;;;20.35;6.53;;;;;;;;;;5042149;28;20556;-81
2021/08/19 05:16:50;;;;;;;18.55;6.65;;;;;;;;;;5028008;28;20061;-81
2021/08/19 05:19:15;;;;;;;20.05;7.00;;;;;;;;;;5037677;28;20025;-81
2021/08/19 05:21:40;;;;;;;19.27;7.27;;;;;;;;;;5039883;28;20531;-82
2021/08/19 05:24:06;;;;;;;17.27;8.15;;;;;;;;;;5045356;28;20263;-82
2021/08/19 05:26:31;;;;;;;18.20;7.65;;;;;;;;;;5047702;28;20029;-81
2021/08/19 05:28:56;;;;;;;22.27;6.83;;;;;;;;;;5031218;28;20021;-82
2021/08/19 05:31:21;;;;;;;19.33;6.17;;;;;;;;;;5039803;28;20267;-81
2021/08/19 05:33:47;;;;;;;24.55;6.53;;;;;;;;;;5029430;28;20267;-82
2021/08/19 05:36:13;;;;;;;15.52;6.85;;;;;;;;;;5029967;28;20025;-82
2021/08/19 05:38:38;;;;;;;17.02;6.65;;;;;;;;;;5049532;28;20025;-82
2021/08/19 05:41:04;;;;;;;25.92;6.70;;;;;;;;;;5042937;28;20388;-82
2021/08/19 05:43:29;;;;;;;14.25;6.25;;;;;;;;;;5041255;28;20100;-82
2021/08/19 05:45:54;;;;;;;16.13;6.40;;;;;;;;;;5037186;28;20084;-82
2021/08/19 05:48:19;;;;;;;15.15;6.22;;;;;;;;;;5045043;28;20263;-82
2021/08/19 05:50:45;;;;;;;16.77;6.40;;;;;;;;;;5029134;28;20380;-82
2021/08/19 05:53:10;;;;;;;18.27;6.10;;;;;;;;;;5042865;28;20271;-82
2021/08/19 05:55:35;;;;;;;15.55;6.25;;;;;;;;;;5028039;28;20252;-82
2021/08/19 05:58:00;;;;;;;18.13;7.33;;;;;;;;;;5042918;28;20021;-81
2021/08/19 06:00:25;;;;;;;22.73;6.97;;;;;;;;;;5036348;28;20093;-82
2021/08/19 06:02:52;;;;;;;21.05;6.38;;;;;;;;;;5043996;28;20039;-82
2021/08/19 06:05:17;;;;;;;16.17;5.65;;;;;;;;;;5036761;28;20427;-82
2021/08/19 06:07:43;;;;;;;20.90;6.60;;;;;;;;;;5036637;28;20053;-82
2021/08/19 06:10:09;;;;;;;19.38;6.80;;;;;;;;;;5042754;28;20048;-82
2021/08/19 06:12:35;;;;;;;17.90;6.05;;;;;;;;;;5032941;28;20030;-82
2021/08/19 06:15:00;;;;;;;20.60;5.13;;;;;;;;;;5041593;28;20406;-82
2021/08/19 06:17:25;;;;;;;22.15;5.88;;;;;;;;;;5042522;28;20175;-82
2021/08/19 06:19:50;;;;;;;18.93;5.07;;;;;;;;;;5040581;28;20472;-81
2021/08/19 06:22:16;;;;;;;18.47;5.33;;;;;;;;;;5036309;28;20028;-82
2021/08/19 06:24:41;;;;;;;18.43;4.87;;;;;;;;;;5035495;28;20252;-82
2021/08/19 06:27:06;;;;;;;18.70;4.67;;;;;;;;;;5036325;28;20802;-82
2021/08/19 06:29:31;;;;;;;15.33;4.23;;;;;;;;;;5035919;28;20071;-82
2021/08/19 06:31:56;;;;;;;17.17;5.13;;;;;;;;;;5035042;28;20651;-82
2021/08/19 06:34:22;;;;;;;17.20;4.40;;;;;;;;;;5034527;28;20033;-81
2021/08/19 06:36:47;;;;;;;20.70;4.30;;;;;;;;;;5035546;28;20032;-82
2021/08/19 06:39:12;;;;;;;13.18;3.58;;;;;;;;;;5037676;28;20013;-82
2021/08/19 06:41:37;;;;;;;20.90;5.13;;;;;;;;;;5036753;28;20033;-82
2021/08/19 06:44:02;;;;;;;26.07;3.87;;;;;;;;;;5033802;28;20286;-82
2021/08/19 06:46:28;;;;;;;21.27;4.65;;;;;;;;;;5037530;28;20753;-82
2021/08/19 06:48:53;;;;;;;13.70;2.80;;;;;;;;;;5036881;28;20041;-82
2021/08/19 06:51:18;;;;;;;12.80;3.55;;;;;;;;;;5033680;28;20049;-82
2021/08/19 06:53:43;;;;;;;16.10;3.88;;;;;;;;;;5035170;28;20477;-82
2021/08/19 06:56:09;;;;;;;11.97;2.90;;;;;;;;;;5033627;28;20021;-81
2021/08/19 06:58:34;;;;;;;17.63;3.17;;;;;;;;;;5032881;28;20268;-82
2021/08/19 07:00:59;;;;;;;11.50;3.23;;;;;;;;;;5035650;28;20535;-81
2021/08/19 07:03:26;;;;;;;13.75;3.20;;;;;;;;;;5037111;28;20056;-82
2021/08/19 07:05:51;;;;;;;16.10;2.90;;;;;;;;;;5037174;28;20021;-82
2021/08/19 07:08:16;;;;;;;32.50;5.75;;;;;;;;;;5033467;28;20608;-82
2021/08/19 07:10:45;;;;;;;15.43;2.95;;;;;;;;;;5034645;28;20423;-82
2021/08/19 07:13:10;;;;;;;14.10;3.05;;;;;;;;;;5032567;28;20029;-82
2021/08/19 07:15:35;;;;;;;6.27;1.67;;;;;;;;;;5032913;28;20103;-82
2021/08/19 07:18:01;;;;;;;5.18;1.50;;;;;;;;;;5031061;28;20284;-81
2021/08/19 07:20:26;;;;;;;4.78;1.80;;;;;;;;;;5037180;28;20037;-82
2021/08/19 07:22:51;;;;;;;4.53;1.25;;;;;;;;;;5037244;28;20029;-82
2021/08/19 07:25:17;;;;;;;4.43;2.13;;;;;;;;;;5035227;28;20053;-82
2021/08/19 07:27:43;;;;;;;5.78;1.70;;;;;;;;;;5033952;28;20307;-82
2021/08/19 07:30:09;;;;;;;3.70;1.48;;;;;;;;;;5032831;28;20501;-82
2021/08/19 07:32:35;;;;;;;3.88;1.58;;;;;;;;;;5032326;28;20472;-82
2021/08/19 07:35:00;;;;;;;5.88;1.85;;;;;;;;;;5030338;28;20030;-81
2021/08/19 07:37:25;;;;;;;7.60;1.70;;;;;;;;;;5034398;28;20027;-82
2021/08/19 07:39:50;;;;;;;6.50;1.70;;;;;;;;;;5034139;28;20264;-82
2021/08/19 07:42:15;;;;;;;10.63;2.53;;;;;;;;;;5033272;28;20469;-81
2021/08/19 07:44:41;;;;;;;9.00;2.25;;;;;;;;;;5034265;28;20086;-82
2021/08/19 07:47:06;;;;;;;11.27;2.37;;;;;;;;;;5032861;28;20541;-81
2021/08/19 07:49:31;;;;;;;6.63;1.92;;;;;;;;;;5031298;28;20363;-81
2021/08/19 07:51:57;;;;;;;13.13;2.60;;;;;;;;;;5032816;28;20454;-81
2021/08/19 07:54:22;;;;;;;6.70;2.08;;;;;;;;;;5034497;28;20030;-82
2021/08/19 07:56:47;;;;;;;11.30;2.45;;;;;;;;;;5036383;28;20389;-82
2021/08/19 07:59:12;;;;;;;11.50;2.58;;;;;;;;;;5033152;28;20026;-82
2021/08/19 08:01:38;;;;;;;11.23;2.90;;;;;;;;;;5034548;28;20021;-82
2021/08/19 08:04:03;;;;;;;15.43;2.58;;;;;;;;;;5033459;28;20122;-82
2021/08/19 08:06:29;;;;;;;12.40;3.72;;;;;;;;;;5033895;28;20037;-81
2021/08/19 08:08:54;;;;;;;10.53;2.57;;;;;;;;;;5033030;28;20060;-82
2021/08/19 08:11:19;;;;;;;14.77;2.50;;;;;;;;;;5031144;28;20397;-82
2021/08/19 08:13:44;;;;;;;15.63;3.43;;;;;;;;;;5033876;28;20734;-82
2021/08/19 08:16:10;;;;;;;11.88;3.38;;;;;;;;;;5032581;28;20454;-82
2021/08/19 08:18:35;;;;;;;9.80;2.97;;;;;;;;;;5034458;28;20112;-82
2021/08/19 08:21:02;;;;;;;10.15;3.80;;;;;;;;;;5034512;28;20025;-82
2021/08/19 08:23:32;;;;;;;12.85;3.38;;;;;;;;;;5033179;28;20028;-82
2021/08/19 08:25:57;;;;;;;12.20;3.17;;;;;;;;;;5031853;28;20064;-82
2021/08/19 08:28:26;;;;;;;15.88;3.55;;;;;;;;;;5032837;28;20721;-82
2021/08/19 08:30:52;;;;;;;7.65;2.90;;;;;;;;;;5034157;28;20030;-82
2021/08/19 08:33:17;;;;;;;14.68;3.03;;;;;;;;;;5032471;28;20099;-83
2021/08/19 08:35:43;;;;;;;9.80;2.95;;;;;;;;;;5035192;28;20017;-82
2021/08/19 08:38:14;;;;;;;12.70;3.22;;;;;;;;;;5034988;28;20036;-82
2021/08/19 08:40:41;;;;;;;10.73;2.95;;;;;;;;;;5033164;28;20450;-82
2021/08/19 08:43:06;;;;;;;10.38;2.80;;;;;;;;;;5032529;28;20108;-83
2021/08/19 08:45:34;;;;;;;8.63;2.38;;;;;;;;;;5032317;28;20096;-82
2021/08/19 08:48:09;;;;;;;9.38;2.50;;;;;;;;;;5033566;28;20029;-82
2021/08/19 08:50:35;;;;;;;10.57;2.10;;;;;;;;;;5034304;28;20021;-82
2021/08/19 08:53:00;;;;;;;12.15;2.67;;;;;;;;;;5032637;28;20381;-82
2021/08/19 08:55:26;;;;;;;11.30;2.30;;;;;;;;;;5035838;28;20497;-82
2021/08/19 08:57:53;;;;;;;9.82;2.20;;;;;;;;;;5033983;28;20025;-82
2021/08/19 09:00:18;;;;;;;12.60;2.67;;;;;;;;;;5033348;28;20112;-82
2021/08/19 09:02:44;;;;;;;17.83;3.35;;;;;;;;;;5032380;28;20428;-82
2021/08/19 09:05:13;;;;;;;15.68;2.50;;;;;;;;;;5031939;28;20025;-82
2021/08/19 09:07:38;;;;;;;7.22;2.15;;;;;;;;;;5035787;28;20090;-82
2021/08/19 09:10:04;;;;;;;7.60;1.90;;;;;;;;;;5033897;28;20025;-82
2021/08/19 09:12:29;;;;;;;9.75;1.58;;;;;;;;;;5031613;28;20267;-82
2021/08/19 09:14:55;;;;;;;15.77;2.30;;;;;;;;;;5031385;28;20440;-82
2021/08/19 09:17:38;;;;;;;10.30;1.92;;;;;;;;;;5034267;28;20052;-82
2021/08/19 09:20:04;;;;;;;6.45;1.65;;;;;;;;;;5033801;28;20022;-82
2021/08/19 09:22:48;;;;;;;6.95;1.48;;;;;;;;;;5031800;28;20028;-82
2021/08/19 09:25:34;;;;;;;9.13;1.73;;;;;;;;;;5032932;28;20025;-82
2021/08/19 09:28:09;;;;;;;6.07;1.88;;;;;;;;;;5029603;28;20021;-82
2021/08/19 09:30:34;;;;;;;7.57;1.95;;;;;;;;;;5033449;28;20024;-82
2021/08/19 09:33:02;;;;;;;6.55;1.80;;;;;;;;;;5032262;28;20021;-82
2021/08/19 09:35:27;;;;;;;7.82;1.85;;;;;;;;;;5031835;28;20128;-81
2021/08/19 09:37:52;;;;;;;7.68;2.15;;;;;;;;;;5030349;28;20142;-82
2021/08/19 09:40:18;;;;;;;13.20;2.13;;;;;;;;;;5034934;28;20040;-82
2021/08/19 09:42:43;;;;;;;4.15;1.50;;;;;;;;;;5033897;28;20108;-82
2021/08/19 09:45:21;;;;;;;4.32;1.38;;;;;;;;;;5030999;28;20026;-82
2021/08/19 09:47:46;;;;;;;9.80;1.80;;;;;;;;;;5034535;28;20025;-82
2021/08/19 09:50:15;;;;;;;7.35;1.85;;;;;;;;;;5037011;28;20030;-83
2021/08/19 09:52:42;;;;;;;5.50;1.40;;;;;;;;;;5036868;28;20021;-82
2021/08/19 09:55:24;;;;;;;4.95;1.30;;;;;;;;;;5036191;28;20064;-82
2021/08/19 09:57:49;;;;;;;7.40;2.17;;;;;;;;;;5034625;28;20028;-82
2021/08/19 10:00:23;;;;;;;4.93;1.25;;;;;;;;;;5035398;28;20465;-82
2021/08/19 10:02:49;;;;;;;7.25;2.08;;;;;;;;;;5036495;28;20030;-82
2021/08/19 10:05:15;;;;;;;7.45;1.70;;;;;;;;;;5038731;28;20021;-82
2021/08/19 10:07:40;;;;;;;2.35;0.90;;;;;;;;;;5038281;28;20321;-82
2021/08/19 10:10:06;;;;;;;4.60;1.57;;;;;;;;;;5036729;28;20047;-82
2021/08/19 10:12:31;;;;;;;6.05;1.20;;;;;;;;;;5035010;28;20029;-82
2021/08/19 10:14:57;;;;;;;8.98;1.80;;;;;;;;;;5032423;28;20083;-82
2021/08/19 10:17:22;;;;;;;4.30;2.20;;;;;;;;;;5034052;28;20083;-82
2021/08/19 10:19:48;;;;;;;4.55;1.55;;;;;;;;;;5038575;28;20021;-82
2021/08/19 10:22:19;;;;;;;3.88;1.25;;;;;;;;;;5039543;28;20021;-82
2021/08/19 10:24:46;;;;;;;5.00;1.00;;;;;;;;;;5036632;28;20022;-82
2021/08/19 10:27:17;;;;;;;7.15;1.20;;;;;;;;;;5035756;28;20501;-82
2021/08/19 10:29:42;;;;;;;;;;;;;;;;;;5035282;28;20040;-82
2021/08/19 10:32:19;;;;;;;6.03;1.52;;;;;;;;;;5034518;28;19909;-82
2021/08/19 10:34:55;;;;;;;5.35;1.30;;;;;;;;;;5032308;28;20037;-82
2021/08/19 10:37:20;;;;;;;2.05;0.93;;;;;;;;;;5031991;28;20504;-82
2021/08/19 10:39:46;;;;;;;4.50;1.37;;;;;;;;;;5036560;28;20026;-82
2021/08/19 10:42:11;;;;;;;3.50;0.90;;;;;;;;;;5039140;28;20248;-82
2021/08/19 10:44:39;;;;;;;5.38;0.95;;;;;;;;;;5037242;28;20083;-82
2021/08/19 10:47:05;;;;;;;2.65;1.15;;;;;;;;;;5034053;28;20026;-82
2021/08/19 10:49:31;;;;;;;4.13;0.88;;;;;;;;;;5035681;28;20071;-82
2021/08/19 10:52:16;;;;;;;3.08;0.98;;;;;;;;;;5032575;28;20033;-82
2021/08/19 10:54:42;;;;;;;3.35;0.82;;;;;;;;;;5033591;28;20036;-82
2021/08/19 10:57:32;;;;;;;1.77;0.65;;;;;;;;;;5033208;28;20026;-82
2021/08/19 11:00:06;;;;;;;3.35;1.10;;;;;;;;;;5035639;28;20025;-82
2021/08/19 11:02:37;;;;;;;30.63;3.55;;;;;;;;;;5037267;28;20670;-83
2021/08/19 11:05:03;;;;;;;4.10;1.17;;;;;;;;;;5035099;28;20036;-82
2021/08/19 11:07:43;;;;;;;5.60;1.40;;;;;;;;;;5034167;28;20025;-82
2021/08/19 11:10:08;;;;;;;6.95;1.80;;;;;;;;;;5033726;28;20577;-82
2021/08/19 11:12:36;;;;;;;4.50;1.17;;;;;;;;;;5033150;28;20108;-82
2021/08/19 11:15:01;;;;;;;4.55;2.08;;;;;;;;;;5031161;28;20300;-81
2021/08/19 11:17:27;;;;;;;2.30;1.00;;;;;;;;;;5033453;28;20531;-82
2021/08/19 11:19:52;;;;;;;5.32;1.85;;;;;;;;;;5037196;28;20271;-83
2021/08/19 11:22:20;;;;;;;6.83;1.30;;;;;;;;;;5037202;28;20021;-82
2021/08/19 11:24:45;;;;;;;5.40;1.40;;;;;;;;;;5036191;28;20049;-82
2021/08/19 11:27:10;;;;;;;5.70;1.35;;;;;;;;;;5035123;28;20067;-82
2021/08/19 11:29:37;;;;;;;3.90;1.40;;;;;;;;;;5033584;28;20022;-82
2021/08/19 11:32:03;;;;;;;5.93;1.83;;;;;;;;;;5033356;28;20048;-82
2021/08/19 11:34:28;;;;;;;10.18;1.95;;;;;;;;;;5032763;28;20033;-82
2021/08/19 11:36:54;;;;;;;12.33;1.53;;;;;;;;;;5037629;28;20056;-82
2021/08/19 11:39:23;;;;;;;11.27;2.53;;;;;;;;;;5036667;28;20744;-82
2021/08/19 11:42:03;;;;;;;7.75;1.92;;;;;;;;;;5036890;28;20029;-82
2021/08/19 11:44:28;;;;;;;5.57;1.88;;;;;;;;;;5033180;28;20543;-82
2021/08/19 11:47:00;;;;;;;10.53;1.93;;;;;;;;;;5033835;28;20030;-82
2021/08/19 11:49:26;;;;;;;7.45;1.73;;;;;;;;;;5033269;28;20286;-82
2021/08/19 11:51:59;;;;;;;7.60;1.45;;;;;;;;;;5032492;28;20025;-82
2021/08/19 11:54:36;;;;;;;7.47;1.60;;;;;;;;;;5033092;28;20030;-82
2021/08/19 11:57:01;;;;;;;4.13;1.30;;;;;;;;;;5035952;28;20026;-82
2021/08/19 11:59:26;;;;;;;6.65;1.50;;;;;;;;;;5035209;28;20044;-82
2021/08/19 12:01:53;;;;;;;4.37;1.40;;;;;;;;;;5037852;28;20040;-82
2021/08/19 12:04:34;;;;;;;7.57;2.08;;;;;;;;;;5034363;28;20029;-83
2021/08/19 12:06:59;;;;;;;;;;;;;;;;;;5032339;28;20033;-82
2021/08/19 12:09:24;;;;;;;7.20;2.30;;;;;;;;;;5031249;28;19913;-82
2021/08/19 12:11:51;;;;;;;4.85;2.03;;;;;;;;;;5034159;28;20028;-82
2021/08/19 12:14:22;;;;;;;5.47;1.45;;;;;;;;;;5035132;28;20036;-82
2021/08/19 12:16:48;;;;;;;2.42;1.13;;;;;;;;;;5035455;28;20104;-82
2021/08/19 12:19:17;;;;;;;5.43;1.60;;;;;;;;;;5033534;28;20065;-82
2021/08/19 12:21:55;;;;;;;3.75;1.10;;;;;;;;;;5035925;28;20031;-82
2021/08/19 12:24:33;;;;;;;3.88;1.48;;;;;;;;;;5033278;28;20036;-82
2021/08/19 12:27:03;;;;;;;1.73;0.70;;;;;;;;;;5032883;28;20037;-82
2021/08/19 12:29:29;;;;;;;3.25;1.02;;;;;;;;;;5033648;28;20477;-82
2021/08/19 12:31:54;;;;;;;4.32;1.00;;;;;;;;;;5036501;28;20436;-82
2021/08/19 12:34:20;;;;;;;4.10;1.10;;;;;;;;;;5033095;28;20025;-82
2021/08/19 12:36:46;;;;;;;3.95;1.23;;;;;;;;;;5033645;28;20539;-82
2021/08/19 12:39:17;;;;;;;4.38;1.00;;;;;;;;;;5033480;28;20022;-82
2021/08/19 12:41:44;;;;;;;2.25;0.82;;;;;;;;;;5035254;28;20021;-82
2021/08/19 12:44:10;;;;;;;1.70;0.82;;;;;;;;;;5033929;28;20048;-82
2021/08/19 12:46:42;;;;;;;5.85;1.00;;;;;;;;;;5033227;28;20037;-82
2021/08/19 12:49:20;;;;;;;2.92;0.80;;;;;;;;;;5035374;28;20422;-83
2021/08/19 12:51:45;;;;;;;3.25;0.98;;;;;;;;;;5033616;28;20082;-82
2021/08/19 12:54:10;;;;;;;4.00;0.80;;;;;;;;;;5033468;28;20132;-83
2021/08/19 12:56:39;;;;;;;2.17;0.97;;;;;;;;;;5032218;28;20475;-82
2021/08/19 12:59:04;;;;;;;3.78;0.90;;;;;;;;;;5031057;28;20036;-82
2021/08/19 13:01:30;;;;;;;5.43;1.15;;;;;;;;;;5032480;28;20025;-82
2021/08/19 13:03:55;;;;;;;5.22;0.80;;;;;;;;;;5035219;28;20032;-82
2021/08/19 13:06:20;;;;;;;2.20;0.90;;;;;;;;;;5033756;28;20107;-82
2021/08/19 13:08:46;;;;;;;1.95;1.08;;;;;;;;;;5034224;28;20409;-83
2021/08/19 13:11:13;;;;;;;1.55;0.73;;;;;;;;;;5034162;28;20445;-82
2021/08/19 13:13:38;;;;;;;3.78;0.90;;;;;;;;;;5033390;28;20124;-82
2021/08/19 13:16:03;;;;;;;3.83;1.00;;;;;;;;;;5031996;28;20454;-82
2021/08/19 13:18:29;;;;;;;4.27;1.00;;;;;;;;;;5031760;28;20237;-82
2021/08/19 13:20:54;;;;;;;6.60;1.10;;;;;;;;;;5029730;28;20456;-82
2021/08/19 13:23:19;;;;;;;7.33;1.30;;;;;;;;;;5033291;28;20017;-83
2021/08/19 13:25:44;;;;;;;5.50;1.42;;;;;;;;;;5035607;28;20037;-82
2021/08/19 13:28:10;;;;;;;4.78;1.38;;;;;;;;;;5031960;28;20160;-83
2021/08/19 13:30:35;;;;;;;4.95;1.38;;;;;;;;;;5035027;28;20017;-82
2021/08/19 13:33:01;;;;;;;8.20;1.97;;;;;;;;;;5031252;28;20186;-82
2021/08/19 13:35:26;;;;;;;3.45;1.50;;;;;;;;;;5032380;28;20359;-83
2021/08/19 13:37:51;;;;;;;2.77;1.50;;;;;;;;;;5031439;28;20021;-82
2021/08/19 13:40:16;;;;;;;5.43;1.57;;;;;;;;;;5031076;28;20473;-83
2021/08/19 13:42:42;;;;;;;5.03;1.53;;;;;;;;;;5030571;28;20253;-82
2021/08/19 13:45:07;;;;;;;4.70;1.48;;;;;;;;;;5033301;28;20017;-83
2021/08/19 13:47:32;;;;;;;3.30;1.23;;;;;;;;;;5032076;28;20359;-83
2021/08/19 13:49:57;;;;;;;3.78;1.30;;;;;;;;;;5030784;28;20032;-83
2021/08/19 13:52:23;;;;;;;4.23;1.43;;;;;;;;;;5030318;28;20029;-82
2021/08/19 13:54:48;;;;;;;2.57;1.10;;;;;;;;;;5028923;28;20492;-83
2021/08/19 13:57:13;;;;;;;3.60;1.17;;;;;;;;;;5030376;28;20306;-82
2021/08/19 13:59:38;;;;;;;4.30;1.03;;;;;;;;;;5029989;28;20056;-82
2021/08/19 14:02:04;;;;;;;4.07;1.07;;;;;;;;;;5028451;28;20095;-82
2021/08/19 14:04:29;;;;;;;2.13;1.00;;;;;;;;;;5032085;28;20273;-83
2021/08/19 14:06:55;;;;;;;3.77;1.20;;;;;;;;;;5032237;28;20477;-83
2021/08/19 14:09:20;;;;;;;2.93;1.10;;;;;;;;;;5032482;28;20029;-82
2021/08/19 14:11:45;;;;;;;3.67;0.90;;;;;;;;;;5031908;28;20567;-82
2021/08/19 14:14:10;;;;;;;2.13;0.90;;;;;;;;;;5030945;28;20025;-82
2021/08/19 14:16:36;;;;;;;3.60;1.50;;;;;;;;;;5028368;28;20045;-82
2021/08/19 14:19:02;;;;;;;5.80;1.42;;;;;;;;;;5030178;28;20157;-82
2021/08/19 14:21:27;;;;;;;5.53;1.10;;;;;;;;;;5033197;28;20120;-83
2021/08/19 14:23:52;;;;;;;3.37;1.10;;;;;;;;;;5035023;28;20021;-82
2021/08/19 14:26:17;;;;;;;3.90;1.33;;;;;;;;;;5031728;28;20079;-82
2021/08/19 14:28:43;;;;;;;4.38;0.90;;;;;;;;;;5031680;28;20237;-82